Time;durP1;ratioP1;P1;durP2;ratioP2;P2;SDS_P1;SDS_P2;PMS_P1;PMS_P2;Temp;Humidity;BMP_temperature;BMP_pressure;BME280_temperature;BME280_humidity;BME280_pressure;Samples;Min_cycle;Max_cycle;Signal;HPM_P1;HPM_P2
2022/10/11 00:00:42;;;;;;;15.63;9.17;;;7.20;99.90;;;;;;2620259;47;20146;-81
2022/10/11 00:07:04;;;;;;;22.23;9.10;;;7.30;99.90;;;;;;2619358;54;20382;-85
2022/10/11 00:09:29;;;;;;;15.43;7.53;;;7.30;99.90;;;;;;2619907;47;20402;-85
2022/10/11 00:16:04;;;;;;;14.43;7.70;;;7.10;99.90;;;;;;2619941;39;20742;-77
2022/10/11 00:18:32;;;;;;;16.17;7.63;;;6.80;99.90;;;;;;2619570;54;20415;-76
2022/10/11 00:21:03;;;;;;;14.93;8.70;;;6.70;99.90;;;;;;2619474;54;20938;-77
2022/10/11 00:23:29;;;;;;;11.80;8.07;;;6.60;99.90;;;;;;2619705;54;20410;-77
2022/10/11 00:25:57;;;;;;;15.20;8.40;;;6.50;99.90;;;;;;2618557;47;20447;-77
2022/10/11 00:28:23;;;;;;;15.00;7.70;;;6.50;99.90;;;;;;2620350;54;20202;-85
2022/10/11 00:30:48;;;;;;;13.57;8.23;;;6.60;99.90;;;;;;2619665;54;20406;-84
2022/10/11 00:37:34;;;;;;;28.10;9.10;;;6.90;99.90;;;;;;2619101;54;20146;-77
2022/10/11 00:44:02;;;;;;;14.17;9.03;;;7.00;99.90;;;;;;2620165;39;20811;-81
2022/10/11 00:49:59;;;;;;;14.90;8.80;;;6.70;99.90;;;;;;2619468;39;20802;-79
2022/10/11 00:52:32;;;;;;;21.70;10.50;;;6.50;99.90;;;;;;2619166;54;20582;-78
2022/10/11 00:55:03;;;;;;;14.20;7.60;;;6.50;99.90;;;;;;2619359;54;20376;-77
2022/10/11 01:01:35;;;;;;;20.33;9.53;;;6.70;99.90;;;;;;2618789;54;20367;-77
2022/10/11 01:07:26;;;;;;;16.07;8.70;;;6.80;99.90;;;;;;2619408;54;20525;-85
2022/10/11 01:10:23;;;;;;;11.33;7.60;;;6.80;99.90;;;;;;2619951;54;20922;-84
2022/10/11 01:16:21;;;;;;;14.37;8.70;;;6.70;99.90;;;;;;2619096;54;20460;-85
2022/10/11 01:22:19;;;;;;;14.90;8.70;;;6.50;99.90;;;;;;2618448;54;20407;-79
2022/10/11 01:25:10;;;;;;;20.93;9.67;;;6.60;99.90;;;;;;2618471;54;20404;-79
2022/10/11 01:27:54;;;;;;;27.50;8.13;;;6.60;99.90;;;;;;2619597;54;20452;-86
2022/10/11 01:30:28;;;;;;;12.90;7.90;;;6.40;99.90;;;;;;2619372;54;20395;-84
2022/10/11 01:39:46;;;;;;;22.33;9.70;;;6.10;99.90;;;;;;2618002;54;20402;-81
2022/10/11 01:42:13;;;;;;;18.57;8.80;;;6.10;99.90;;;;;;2618078;54;20391;-81
2022/10/11 01:45:35;;;;;;;21.80;9.33;;;6.10;99.90;;;;;;2618230;54;20406;-80
2022/10/11 01:48:12;;;;;;;14.17;9.00;;;6.10;99.90;;;;;;2619806;54;20410;-79
2022/10/11 01:54:24;;;;;;;15.30;8.80;;;6.20;99.90;;;;;;2624689;54;20398;-85
2022/10/11 01:56:50;;;;;;;15.80;9.43;;;6.20;99.90;;;;;;2622579;54;20379;-78
2022/10/11 02:00:05;;;;;;;14.20;8.90;;;6.30;99.90;;;;;;2619113;54;20932;-77
2022/10/11 02:06:04;;;;;;;14.97;9.20;;;6.60;99.90;;;;;;2620664;54;20411;-78
2022/10/11 02:08:33;;;;;;;15.30;10.00;;;6.60;99.90;;;;;;2619076;47;20927;-78
2022/10/11 02:11:09;;;;;;;28.30;11.00;;;6.60;99.90;;;;;;2618399;54;20503;-78
2022/10/11 02:20:23;;;;;;;20.57;9.77;;;6.00;99.90;;;;;;2619450;54;20352;-83
2022/10/11 02:22:52;;;;;;;13.23;8.97;;;5.90;99.90;;;;;;2619757;47;20407;-81
2022/10/11 02:25:22;;;;;;;19.20;9.87;;;5.90;99.90;;;;;;2619034;46;20408;-80
2022/10/11 02:27:50;;;;;;;17.90;10.40;;;5.80;99.90;;;;;;2622211;54;20417;-85
2022/10/11 02:40:28;;;;;;;18.77;10.07;;;5.70;99.90;;;;;;2620237;54;20331;-80
2022/10/11 02:46:16;;;;;;;21.73;11.40;;;6.10;99.90;;;;;;2619320;54;20380;-77
2022/10/11 02:52:54;;;;;;;15.40;10.77;;;6.10;99.90;;;;;;2618943;54;20355;-78
2022/10/11 02:55:20;;;;;;;18.50;11.73;;;6.00;99.90;;;;;;2616983;54;20390;-78
2022/10/11 02:58:23;;;;;;;32.20;13.50;;;6.00;99.90;;;;;;2618425;39;20792;-79
2022/10/11 03:00:49;;;;;;;20.97;12.30;;;6.10;99.90;;;;;;2618054;54;20375;-79
2022/10/11 03:03:15;;;;;;;20.00;12.47;;;6.10;99.90;;;;;;2618288;54;20387;-80
2022/10/11 03:09:02;;;;;;;23.87;12.60;;;6.00;99.90;;;;;;2617873;54;20379;-78
2022/10/11 03:11:27;;;;;;;18.83;10.70;;;6.00;99.90;;;;;;2617435;47;20407;-78
2022/10/11 03:13:53;;;;;;;26.90;13.63;;;5.90;99.90;;;;;;2617916;54;20740;-78
2022/10/11 03:29:44;;;;;;;25.13;11.93;;;5.60;99.90;;;;;;2617890;54;20398;-85
2022/10/11 03:35:32;;;;;;;22.90;12.67;;;5.60;99.90;;;;;;2619629;54;20110;-80
2022/10/11 03:37:58;;;;;;;23.00;12.20;;;5.60;99.90;;;;;;2618797;54;20403;-77
2022/10/11 03:40:24;;;;;;;27.40;12.90;;;5.70;99.90;;;;;;2618847;54;20143;-77
2022/10/11 03:46:11;;;;;;;30.47;14.13;;;5.90;99.90;;;;;;2619327;54;20123;-77
2022/10/11 03:51:59;;;;;;;24.80;12.40;;;5.80;99.90;;;;;;2620369;54;20625;-79
2022/10/11 03:54:25;;;;;;;32.63;15.70;;;5.70;99.90;;;;;;2619359;54;20399;-80
2022/10/11 04:03:35;;;;;;;31.30;15.83;;;6.00;99.90;;;;;;2619016;54;20371;-79
2022/10/11 04:06:37;;;;;;;34.17;15.43;;;6.10;99.90;;;;;;2618979;54;20423;-80
2022/10/11 04:12:25;;;;;;;27.57;16.60;;;5.90;99.90;;;;;;2619134;54;20416;-79
2022/10/11 04:18:13;;;;;;;25.97;15.20;;;6.20;99.90;;;;;;2618815;54;20394;-78
2022/10/11 04:33:17;;;;;;;29.97;16.00;;;6.00;99.90;;;;;;2615651;39;20691;-71
2022/10/11 04:39:06;;;;;;;25.30;16.20;;;5.70;99.90;;;;;;2615332;54;20659;-72
2022/10/11 04:44:53;;;;;;;33.03;18.20;;;5.80;99.90;;;;;;2614923;39;20824;-72
2022/10/11 04:50:43;;;;;;;29.70;14.97;;;5.60;99.90;;;;;;2614919;54;20154;-71
2022/10/11 04:56:30;;;;;;;29.63;16.00;;;5.40;99.90;;;;;;2616162;54;20379;-73
2022/10/11 05:02:18;;;;;;;26.90;15.10;;;5.30;99.90;;;;;;2614130;54;21123;-71
2022/10/11 05:08:06;;;;;;;32.77;14.40;;;5.40;99.90;;;;;;2616124;54;20238;-71
2022/10/11 05:13:55;;;;;;;24.30;15.00;;;5.30;99.90;;;;;;2615355;54;20162;-72
2022/10/11 05:19:42;;;;;;;29.70;17.47;;;5.50;99.90;;;;;;2615048;54;20419;-70
2022/10/11 05:22:09;;;;;;;33.20;18.60;;;5.60;99.90;;;;;;2614632;54;20427;-72
2022/10/11 05:24:34;;;;;;;39.17;19.70;;;5.70;99.90;;;;;;2614377;54;20139;-72
2022/10/11 05:30:34;;;;;;;33.27;19.20;;;5.50;99.90;;;;;;2614159;54;20631;-72
2022/10/11 05:36:21;;;;;;;33.03;19.30;;;5.60;99.90;;;;;;2611754;39;20355;-75
2022/10/11 05:42:08;;;;;;;36.83;20.77;;;5.70;99.90;;;;;;2612551;54;20161;-73
2022/10/11 05:47:55;;;;;;;35.30;19.23;;;5.50;99.90;;;;;;2611715;54;21018;-72
2022/10/11 05:53:42;;;;;;;49.50;24.37;;;5.50;99.90;;;;;;2613010;54;20154;-71
2022/10/11 05:59:29;;;;;;;52.27;25.50;;;5.80;99.90;;;;;;2611971;54;20119;-71
2022/10/11 06:05:16;;;;;;;38.43;21.10;;;5.90;99.90;;;;;;2612889;54;20195;-72
2022/10/11 06:11:24;;;;;;;38.07;21.73;;;5.90;99.90;;;;;;2614185;54;20138;-70
2022/10/11 06:17:11;;;;;;;43.43;21.17;;;6.00;99.90;;;;;;2613836;54;20395;-72
2022/10/11 06:22:59;;;;;;;36.03;19.50;;;6.00;99.90;;;;;;2613306;54;20150;-72
2022/10/11 06:25:25;;;;;;;46.70;19.20;;;6.00;99.90;;;;;;2608583;47;21413;-72
2022/10/11 06:32:05;;;;;;;31.20;19.50;;;6.30;99.90;;;;;;2611727;54;20142;-73
2022/10/11 06:37:53;;;;;;;36.20;18.90;;;6.40;99.90;;;;;;2612256;39;20815;-71
2022/10/11 06:43:40;;;;;;;45.43;19.50;;;6.60;99.90;;;;;;2614885;54;20178;-71
2022/10/11 06:49:28;;;;;;;45.03;21.30;;;6.80;99.90;;;;;;2612186;54;20130;-71
2022/10/11 06:55:16;;;;;;;42.40;21.43;;;7.50;99.90;;;;;;2614384;54;20405;-71
2022/10/11 07:01:07;;;;;;;39.10;18.77;;;8.70;99.90;;;;;;2613300;39;20657;-72
2022/10/11 07:06:55;;;;;;;37.27;16.93;;;9.80;99.90;;;;;;2613957;54;20387;-72
2022/10/11 07:12:43;;;;;;;33.80;19.30;;;10.40;99.90;;;;;;2613306;54;20138;-72
2022/10/11 07:18:31;;;;;;;27.97;17.93;;;11.00;99.90;;;;;;2611516;54;20394;-72
2022/10/11 07:24:19;;;;;;;28.70;17.53;;;10.70;99.90;;;;;;2612162;46;20434;-72
2022/10/11 07:30:16;;;;;;;31.80;15.23;;;11.10;99.90;;;;;;2613703;39;20650;-72
2022/10/11 07:36:04;;;;;;;23.10;13.27;;;11.40;99.90;;;;;;2612160;54;20150;-73
2022/10/11 07:41:51;;;;;;;15.03;11.90;;;12.30;99.90;;;;;;2612137;39;20816;-73
2022/10/11 07:47:38;;;;;;;16.03;12.43;;;13.00;99.90;;;;;;2611507;54;20194;-71
2022/10/11 07:53:25;;;;;;;17.50;11.20;;;12.80;99.90;;;;;;2612185;54;20239;-72
2022/10/11 07:59:13;;;;;;;25.20;14.03;;;13.90;99.90;;;;;;2610843;54;20710;-73
2022/10/11 08:05:00;;;;;;;18.33;12.80;;;13.60;99.90;;;;;;2610810;47;21320;-70
2022/10/11 08:10:48;;;;;;;18.80;12.53;;;13.50;99.90;;;;;;2613112;54;20254;-73
2022/10/11 08:16:37;;;;;;;20.70;12.43;;;14.00;99.90;;;;;;2615175;54;20138;-72
2022/10/11 08:22:25;;;;;;;12.97;11.40;;;14.70;99.90;;;;;;2612043;54;20441;-72
2022/10/11 08:32:10;;;;;;;20.67;12.97;;;14.90;99.90;;;;;;2614423;54;21018;-71
2022/10/11 08:37:58;;;;;;;23.73;11.90;;;15.20;99.90;;;;;;2614360;54;20403;-71
2022/10/11 08:43:45;;;;;;;14.63;11.00;;;15.00;99.90;;;;;;2615263;39;20198;-72
2022/10/11 08:49:34;;;;;;;15.87;12.73;;;16.50;89.50;;;;;;2610965;54;20130;-71
2022/10/11 09:15:07;;;;;;;14.93;11.80;;;14.80;93.20;;;;;;2612820;54;20387;-72
2022/10/11 09:27:35;;;;;;;11.90;10.27;;;16.70;62.80;;;;;;2614098;39;20763;-71
2022/10/11 09:41:06;;;;;;;11.80;10.67;;;17.30;60.00;;;;;;2614256;39;20770;-72
2022/10/11 09:46:55;;;;;;;13.43;12.13;;;17.40;54.50;;;;;;2614007;54;20402;-72
2022/10/11 09:52:51;;;;;;;13.37;12.10;;;17.80;57.40;;;;;;2615287;39;20776;-72
2022/10/11 09:58:39;;;;;;;12.63;11.60;;;18.40;37.30;;;;;;2614985;31;20964;-72
2022/10/11 10:04:27;;;;;;;12.10;11.40;;;18.60;35.20;;;;;;2615138;54;21958;-72
2022/10/11 10:10:29;;;;;;;13.00;11.77;;;18.30;35.30;;;;;;2615302;54;20247;-72
2022/10/11 10:16:25;;;;;;;12.83;11.83;;;18.70;32.80;;;;;;2614223;54;21284;-72
2022/10/11 10:28:32;;;;;;;13.57;12.33;;;18.70;25.60;;;;;;2613086;54;20403;-74
2022/10/11 10:34:26;;;;;;;12.60;11.90;;;19.30;25.20;;;;;;2614191;54;20260;-72
2022/10/11 10:40:20;;;;;;;13.03;11.97;;;18.30;28.90;;;;;;2613324;39;20726;-72
2022/10/11 10:46:26;;;;;;;12.33;11.30;;;19.30;26.00;;;;;;2614687;54;20404;-74
2022/10/11 11:12:38;;;;;;;13.80;12.60;;;18.10;25.90;;;;;;2612485;54;20449;-72
2022/10/11 11:18:25;;;;;;;14.10;12.67;;;17.20;20.60;;;;;;2611889;54;20441;-73
2022/10/11 11:53:04;;;;;;;14.40;13.40;;;16.90;20.10;;;;;;2614731;54;20398;-72
2022/10/11 12:09:49;;;;;;;14.47;13.30;;;18.50;18.20;;;;;;2612759;54;20415;-72
2022/10/11 12:15:36;;;;;;;16.43;14.93;;;20.60;17.80;;;;;;2615155;54;20411;-72
2022/10/11 12:21:33;;;;;;;14.87;13.53;;;17.50;20.70;;;;;;2614072;46;20403;-72
2022/10/11 12:27:42;;;;;;;14.37;13.57;;;16.90;23.40;;;;;;2614458;46;20486;-73
2022/10/11 12:33:29;;;;;;;13.50;12.70;;;16.90;20.60;;;;;;2612252;54;20487;-71
2022/10/11 12:39:20;;;;;;;14.20;12.33;;;18.70;17.40;;;;;;2614094;54;20142;-73
2022/10/11 12:45:11;;;;;;;14.93;13.90;;;17.30;15.50;;;;;;2613475;54;20368;-72
2022/10/11 12:51:13;;;;;;;14.17;13.10;;;20.00;15.00;;;;;;2614553;54;20427;-72
2022/10/11 12:57:04;;;;;;;13.63;12.50;;;20.30;12.90;;;;;;2612118;54;20403;-72
2022/10/11 13:02:53;;;;;;;13.13;12.33;;;21.40;10.60;;;;;;2614002;31;20843;-72
2022/10/11 13:08:44;;;;;;;14.00;13.20;;;20.90;11.10;;;;;;2614972;54;21186;-71
2022/10/11 13:20:59;;;;;;;15.40;14.07;;;20.30;15.10;;;;;;2614239;54;20406;-72
2022/10/11 13:26:49;;;;;;;14.27;12.97;;;20.90;13.00;;;;;;2614082;54;20166;-72
2022/10/11 13:32:36;;;;;;;14.43;13.30;;;20.90;12.60;;;;;;2614561;54;20963;-72
2022/10/11 13:38:24;;;;;;;13.30;12.30;;;21.80;11.00;;;;;;2613881;54;20153;-72
2022/10/11 13:44:12;;;;;;;14.43;13.20;;;20.80;10.10;;;;;;2614496;54;20415;-72
2022/10/11 13:56:43;;;;;;;13.40;12.40;;;21.40;8.80;;;;;;2614984;54;20446;-71
2022/10/11 14:02:31;;;;;;;13.17;12.47;;;21.70;9.20;;;;;;2614998;54;21051;-73
2022/10/11 14:15:05;;;;;;;14.23;13.30;;;21.90;7.80;;;;;;2614567;54;20394;-71
2022/10/11 14:20:53;;;;;;;13.40;12.60;;;21.50;6.10;;;;;;2613693;54;20423;-72
2022/10/11 14:26:47;;;;;;;13.80;12.40;;;20.60;7.20;;;;;;2614319;54;20131;-72
2022/10/11 14:32:35;;;;;;;13.83;12.83;;;17.90;9.80;;;;;;2614025;54;20429;-72
2022/10/11 14:35:24;;;;;;;13.73;12.63;;;18.40;11.10;;;;;;2612973;54;20423;-73
2022/10/11 14:37:50;;;;;;;14.00;12.90;;;18.20;11.50;;;;;;2613903;47;20948;-72
2022/10/11 14:40:53;;;;;;;14.00;13.10;;;20.20;11.70;;;;;;2612162;54;20423;-73
2022/10/11 14:43:19;;;;;;;13.50;12.50;;;20.30;9.70;;;;;;2613301;46;20481;-73
2022/10/11 14:49:15;;;;;;;13.30;12.10;;;21.80;9.30;;;;;;2614999;39;20564;-72
2022/10/11 14:55:03;;;;;;;14.50;13.43;;;21.60;9.70;;;;;;2614573;39;20866;-74
2022/10/11 15:00:51;;;;;;;13.00;12.20;;;21.60;10.60;;;;;;2615434;54;20149;-73
2022/10/11 15:06:40;;;;;;;13.77;12.67;;;20.20;11.50;;;;;;2615407;54;20225;-74
2022/10/11 15:12:27;;;;;;;15.23;12.40;;;21.00;11.30;;;;;;2615787;54;20487;-71
2022/10/11 15:18:20;;;;;;;12.60;11.67;;;20.00;11.90;;;;;;2611084;54;20122;-72
2022/10/11 15:24:08;;;;;;;13.07;12.13;;;20.40;11.70;;;;;;2612158;54;20395;-72
2022/10/11 15:29:55;;;;;;;10.77;10.10;;;21.20;9.80;;;;;;2612532;54;20415;-72
2022/10/11 15:46:00;;;;;;;12.93;11.70;;;19.70;12.20;;;;;;2612808;54;20399;-72
2022/10/11 15:51:47;;;;;;;11.80;10.90;;;19.10;12.80;;;;;;2610897;46;20414;-72
2022/10/11 15:57:34;;;;;;;11.87;11.03;;;18.60;13.70;;;;;;2610449;54;20673;-71
2022/10/11 16:03:24;;;;;;;11.80;10.90;;;18.20;14.70;;;;;;2610323;54;20158;-73
2022/10/11 16:09:11;;;;;;;13.03;11.90;;;17.90;14.20;;;;;;2610661;39;21372;-74
2022/10/11 16:14:58;;;;;;;11.00;10.10;;;17.30;16.90;;;;;;2611427;54;20403;-73
2022/10/11 16:20:47;;;;;;;10.33;9.43;;;16.00;20.20;;;;;;2613175;54;20162;-73
2022/10/11 16:26:34;;;;;;;10.87;10.00;;;14.50;28.60;;;;;;2611638;46;20407;-72
2022/10/11 16:32:23;;;;;;;11.40;10.50;;;14.10;40.20;;;;;;2614368;54;20154;-72
2022/10/11 16:41:36;;;;;;;11.57;10.57;;;13.40;66.10;;;;;;2613949;54;20406;-71
2022/10/11 16:47:23;;;;;;;11.90;10.70;;;12.80;76.50;;;;;;2615243;54;20384;-73
2022/10/11 16:53:14;;;;;;;11.33;10.33;;;12.40;90.40;;;;;;2615316;54;20201;-74
2022/10/11 16:59:02;;;;;;;12.80;9.57;;;12.20;99.80;;;;;;2612230;54;20419;-74
2022/10/11 17:04:52;;;;;;;15.23;10.23;;;12.00;99.90;;;;;;2615131;54;20507;-71
2022/10/11 17:10:43;;;;;;;19.67;11.33;;;11.60;99.90;;;;;;2614405;54;20403;-73
2022/10/11 17:16:30;;;;;;;17.20;9.60;;;11.40;99.90;;;;;;2614172;54;20411;-71
2022/10/11 17:22:19;;;;;;;14.97;10.20;;;11.10;99.90;;;;;;2611851;39;20674;-73
2022/10/11 17:28:06;;;;;;;12.67;10.20;;;11.00;99.90;;;;;;2613994;54;20452;-73
2022/10/11 17:33:57;;;;;;;11.40;8.93;;;10.70;99.90;;;;;;2612453;39;20579;-72
2022/10/11 17:37:08;;;;;;;14.00;8.43;;;10.70;99.90;;;;;;2608973;46;20423;-73
2022/10/11 17:39:34;;;;;;;10.40;8.73;;;10.50;99.90;;;;;;2612414;47;20429;-72
2022/10/11 17:45:22;;;;;;;13.17;7.93;;;10.30;99.90;;;;;;2614994;54;20155;-72
2022/10/11 17:51:12;;;;;;;16.87;8.30;;;10.20;99.90;;;;;;2613584;54;20134;-73
2022/10/11 17:57:00;;;;;;;8.57;7.37;;;10.00;99.90;;;;;;2612843;39;20616;-72
2022/10/11 18:02:48;;;;;;;9.60;7.73;;;9.80;99.90;;;;;;2613468;54;20154;-73
2022/10/11 18:08:38;;;;;;;12.90;8.60;;;9.70;99.90;;;;;;2610933;54;20723;-73
2022/10/11 18:14:26;;;;;;;11.17;8.27;;;9.40;99.90;;;;;;2613998;54;20487;-73
2022/10/11 18:20:14;;;;;;;9.60;7.77;;;9.20;99.90;;;;;;2613097;54;20134;-75
2022/10/11 18:26:14;;;;;;;11.43;8.10;;;9.20;99.90;;;;;;2613638;54;20639;-73
2022/10/11 18:32:02;;;;;;;16.10;8.87;;;9.00;99.90;;;;;;2614186;54;20585;-72
2022/10/11 18:41:43;;;;;;;11.20;8.33;;;8.90;99.90;;;;;;2614597;46;20426;-73
2022/10/11 18:47:30;;;;;;;11.60;7.03;;;8.50;99.90;;;;;;2614613;54;20533;-72
2022/10/11 18:53:21;;;;;;;14.43;8.50;;;8.50;99.90;;;;;;2614655;54;20134;-71
2022/10/11 18:59:09;;;;;;;15.77;9.30;;;8.40;99.90;;;;;;2613849;54;20394;-75
2022/10/11 19:04:58;;;;;;;11.20;9.83;;;8.30;99.90;;;;;;2614488;54;20370;-73
2022/10/11 19:10:46;;;;;;;19.37;10.83;;;8.10;99.90;;;;;;2614194;39;20795;-72
2022/10/11 19:16:39;;;;;;;15.67;10.20;;;8.00;99.90;;;;;;2614924;54;20246;-73
2022/10/11 19:22:26;;;;;;;14.30;9.47;;;7.90;99.90;;;;;;2614458;54;20510;-72
2022/10/11 19:28:14;;;;;;;13.23;10.83;;;7.80;99.90;;;;;;2613589;54;20695;-74
2022/10/11 19:34:02;;;;;;;15.50;11.50;;;7.70;99.90;;;;;;2614023;54;20150;-72
2022/10/11 19:37:06;;;;;;;15.50;11.50;;;7.70;99.90;;;;;;2613162;54;20444;-71
2022/10/11 19:39:32;;;;;;;13.00;11.20;;;7.80;99.90;;;;;;2613775;54;20185;-72
2022/10/11 19:45:19;;;;;;;15.47;11.57;;;7.60;99.90;;;;;;2615024;54;20155;-72
2022/10/11 19:51:10;;;;;;;13.90;9.93;;;7.50;99.90;;;;;;2614866;54;20142;-73
2022/10/11 19:56:58;;;;;;;16.20;9.80;;;7.40;99.90;;;;;;2614274;54;20521;-72
2022/10/11 20:02:45;;;;;;;16.80;8.03;;;7.30;99.90;;;;;;2614642;54;20158;-73
2022/10/11 20:08:35;;;;;;;10.33;7.47;;;7.20;99.90;;;;;;2615639;31;20603;-74
2022/10/11 20:14:23;;;;;;;12.20;7.63;;;7.30;99.90;;;;;;2614394;54;20406;-72
2022/10/11 20:20:11;;;;;;;9.83;8.57;;;7.20;99.90;;;;;;2614028;54;21106;-73
2022/10/11 20:32:19;;;;;;;11.73;9.00;;;7.00;99.90;;;;;;2613885;54;20398;-72
2022/10/11 20:41:42;;;;;;;18.13;8.00;;;6.90;99.90;;;;;;2609479;54;20426;-73
2022/10/11 20:47:30;;;;;;;16.43;8.13;;;6.70;99.90;;;;;;2614216;54;20410;-72
2022/10/11 20:53:17;;;;;;;12.23;9.33;;;6.60;99.90;;;;;;2615148;39;20519;-72
2022/10/11 20:59:06;;;;;;;10.07;8.73;;;6.50;99.90;;;;;;2611383;54;20150;-72
2022/10/11 21:04:54;;;;;;;19.33;11.17;;;6.50;99.90;;;;;;2615500;39;20755;-71
2022/10/11 21:17:15;;;;;;;14.10;10.33;;;6.40;99.90;;;;;;2615256;54;21380;-73
2022/10/11 21:23:03;;;;;;;14.10;9.00;;;6.20;99.90;;;;;;2613966;54;20402;-72
2022/10/11 21:28:53;;;;;;;12.40;9.40;;;6.10;99.90;;;;;;2615454;46;20154;-72
2022/10/11 21:34:42;;;;;;;14.67;9.67;;;6.20;99.90;;;;;;2614824;54;20395;-71
2022/10/11 21:43:54;;;;;;;10.37;9.37;;;5.90;99.90;;;;;;2611928;54;20423;-73
2022/10/11 21:49:42;;;;;;;14.93;9.97;;;5.80;99.90;;;;;;2614235;54;20858;-72
2022/10/11 21:55:30;;;;;;;12.87;11.17;;;5.70;99.90;;;;;;2615066;54;20158;-72
2022/10/11 22:01:20;;;;;;;12.87;10.10;;;5.80;99.90;;;;;;2614751;54;20122;-73
2022/10/11 22:07:07;;;;;;;14.63;10.80;;;5.80;99.90;;;;;;2614802;54;20407;-73
2022/10/11 22:12:55;;;;;;;18.03;11.00;;;5.80;99.90;;;;;;2614767;46;20616;-72
2022/10/11 22:18:43;;;;;;;11.57;10.47;;;5.60;99.90;;;;;;2613405;54;20423;-73
2022/10/11 22:24:31;;;;;;;15.90;12.23;;;5.60;99.90;;;;;;2614339;54;20131;-73
2022/10/11 22:30:19;;;;;;;16.80;12.47;;;5.50;99.90;;;;;;2615001;54;20270;-73
2022/10/11 22:36:08;;;;;;;15.60;13.10;;;5.60;99.90;;;;;;2614729;54;20181;-73
2022/10/11 22:39:25;;;;;;;14.47;12.60;;;5.50;99.90;;;;;;2614595;54;20427;-73
2022/10/11 22:41:52;;;;;;;20.37;14.20;;;5.40;99.90;;;;;;2613304;39;20856;-71
2022/10/11 22:47:40;;;;;;;26.97;14.23;;;5.40;99.90;;;;;;2613650;54;20872;-71
2022/10/11 22:53:29;;;;;;;20.57;15.03;;;5.50;99.90;;;;;;2614769;54;20286;-73
2022/10/11 22:59:16;;;;;;;23.80;14.50;;;5.40;99.90;;;;;;2614807;54;20394;-72
2022/10/11 23:05:04;;;;;;;22.43;14.77;;;5.30;99.90;;;;;;2614586;54;20158;-72
2022/10/11 23:10:55;;;;;;;20.93;16.07;;;5.40;99.90;;;;;;2613636;54;20635;-71
2022/10/11 23:16:42;;;;;;;20.00;13.90;;;5.20;99.90;;;;;;2614064;54;20380;-73
2022/10/11 23:22:30;;;;;;;17.47;14.77;;;5.30;99.90;;;;;;2613356;54;20133;-73
2022/10/11 23:28:18;;;;;;;18.43;14.73;;;5.20;99.90;;;;;;2614138;54;20153;-71
2022/10/11 23:34:05;;;;;;;19.93;14.97;;;5.10;99.90;;;;;;2614390;54;20229;-72
2022/10/11 23:43:56;;;;;;;19.40;13.67;;;4.90;99.90;;;;;;2615395;39;20931;-72
2022/10/11 23:49:44;;;;;;;24.77;12.50;;;4.80;99.90;;;;;;2612900;54;20935;-72
2022/10/11 23:55:32;;;;;;;16.97;12.43;;;4.80;99.90;;;;;;2613581;54;20130;-72
